aviador You're here:

YPXM Decoded Metar

CHRISTMAS ISLAND in CHRISTMAS ISLAND
Report Time2018-05-20 19:30:00
UTC Time2018-05-20 19:43:32
Flight Rules vfr VFR
Wind090° at 07 kt
W.Decomp.*RWY 36: 0.1 kt HW 7.0 kt RCW
W.Rank090° ranks 5
Current wind is below 090° avg. (8.3)
Visibility9999 m
Phenomena:N/A
Clouds:Scattered 024 Hf
Expected CloudBase > 1,200 ft AGL from Temp-Dew spread
CeilingNone
Temp24°C (ISA +11)
Dew Point21°C (83% RH)
QNH1010 hPa
Density Alt2,523 ft
Elevation850 ft
Report Wrong Elevation
Raw Report
METAR YPXM 201930Z AUTO 09007KT 9999 // SCT024 24/21 Q1010=

Extra information for YPXM:More info

Metar Taf Metar & Taf Last 4 Metars F.Rules Stats Wind Profile Meteogram Temp Stats Airport Information Weather charts Add Link Nearby VenuesMetar ALERT Operation Metar Decoded Social comments